Decoded Metar for GMME (RABAT in MOROCCO) (IATA:RBA) | Meteo·Mobile Aviation Weather
aviador You're here:

GMME Decoded Metar

RABAT in MOROCCO
Report Time2018-09-19 20:00:00
UTC Time2018-09-19 20:25:04
Flight Rules vfr VFR
WindCalm
Visibility9000 m
Phenomena:N/A
Clouds:N/A
Expected CloudBase > 1,200 ft AGL from Temp-Dew spread
CeilingNone
Temp21°C (ISA +6)
Dew Point18°C (83% RH)
QNH1018 hPa
Density Alt1,109 ft
Elevation246 ft
Report Wrong Elevation
Raw Report
METAR GMME 192000Z 00000KT 9000 NSC 21/18 Q1018 NOSIG=

Extra information for GMME:More info

Metar Taf Metar & Taf Last 4 Metars F.Rules Stats Wind Profile Meteogram Temp Stats Airport Information Weather charts Add Link Nearby VenuesMetar ALERT Operation Metar Decoded Social comments